Flight Track Log - Related Links

Times and Time Zones

All times are in EDT time to prevent confusion due to time zone crossing. See the DAL3682 flight status page for this flight to view local times or setup timezone preferences in your user account.


Time Position Orientation Groundspeed Altitude Reporting Facility
EDT Latitude Longitude Course Direction KTS MPH feet Rate Location/Type
Mon 03:07:56 PM 42.1994 -83.3581 180° South 166 191 1,300  Level Cleveland Center
Mon 03:08:38 PM 42.1658 -83.3650 189° South 199 229 2,400 1,922 Climbing Cleveland Center
Mon 03:09:39 PM 42.1072 -83.3792 190° South 234 269 4,600 2,208 Climbing Cleveland Center
Mon 03:10:43 PM 42.0297 -83.3897 186° South 273 314 7,000 2,274 Climbing Cleveland Center
Mon 03:11:00 PM 41.7902 -83.2258 180° South  Level Estimated
Mon 03:11:43 PM 41.9528 -83.3808 175° South 288 331 9,300  Level Cleveland Center
Mon 03:12:00 PM 41.6847 -83.1942 180° South  Level Estimated
Mon 03:12:43 PM 41.8886 -83.3725 174° South 282 325 11,200  Level Cleveland Center
Mon 03:13:00 PM 41.5791 -83.1626 180° South  Level Estimated
Mon 03:13:43 PM 41.8094 -83.3608 174° South 282 325 13,200  Level Cleveland Center
Mon 03:15:38 PM 41.6486 -83.3389 174° South 299 344 16,300 1,367 Climbing Indianapolis Center
Mon 03:16:43 PM 41.5517 -83.3356 179° South 313 360 17,300 816 Climbing Cleveland Center
Mon 03:17:43 PM 41.4589 -83.3733 197° South 324 373 18,000 750 Climbing Cleveland Center
Mon 03:18:43 PM 41.3639 -83.4272 203° Southwest 354 407 18,800 750 Climbing Cleveland Center
Mon 03:19:43 PM 41.2667 -83.4811 203° Southwest 368 423 19,500 750 Climbing Cleveland Center
Mon 03:20:43 PM 41.1711 -83.5403 205° Southwest 375 432 20,300 905 Climbing Cleveland Center
Mon 03:21:49 PM 41.0594 -83.6033 203° Southwest 375 432 21,400 898 Climbing Indianapolis Center
Mon 03:22:50 PM 40.9650 -83.6586 204° Southwest 374 430 22,200 829 Climbing Indianapolis Center
Mon 03:23:52 PM 40.8706 -83.7128 203° Southwest 369 425 23,100 726 Climbing Indianapolis Center
Mon 03:24:54 PM 40.7769 -83.7661 203° Southwest 366 421 23,700 581 Climbing Indianapolis Center
Mon 03:25:56 PM 40.6814 -83.8211 204° Southwest 370 426 24,300 581 Climbing Indianapolis Center
Mon 03:26:58 PM 40.5861 -83.8756 203° Southwest 372 428 24,900 585 Climbing Indianapolis Center
Mon 03:27:59 PM 40.4894 -83.9297 203° Southwest 375 432 25,500 634 Climbing Indianapolis Center
Mon 03:29:01 PM 40.3764 -83.9933 203° Southwest 377 434 26,200 629 Climbing Indianapolis Center
Mon 03:30:03 PM 40.2781 -84.0442 202° Southwest 377 434 26,800 532 Climbing Indianapolis Center
Mon 03:31:05 PM 40.1739 -84.0614 187° South 379 436 27,300 435 Climbing Indianapolis Center
Mon 03:32:07 PM 40.0692 -84.0797 188° South 377 434 27,700 387 Climbing Indianapolis Center
Mon 03:33:09 PM 39.9625 -84.0969 187° South 384 442 28,100 390 Climbing Indianapolis Center
Mon 03:34:10 PM 39.8569 -84.1150 187° South 383 441 28,500 439 Climbing Indianapolis Center
Mon 03:35:12 PM 39.7311 -84.1350 187° South 386 444 29,000 242 Climbing Indianapolis Center
Mon 03:36:14 PM 39.6228 -84.1533 187° South 389 448 29,000  Level Indianapolis Center
Mon 03:37:16 PM 39.5122 -84.1717 187° South 396 456 29,000  Level Indianapolis Center
Mon 03:38:18 PM 39.3994 -84.1914 188° South 404 465 29,000  Level Indianapolis Center
Mon 03:39:20 PM 39.2831 -84.2094 187° South 417 480 29,000  Level Indianapolis Center
Mon 03:40:21 PM 39.1661 -84.2281 187° South 419 482 29,000  Level Indianapolis Center
Mon 03:41:23 PM 39.0481 -84.2483 188° South 424 488 29,000  Level Indianapolis Center
Mon 03:42:25 PM 38.9275 -84.2667 187° South 433 498 29,000  Level Indianapolis Center
Mon 03:43:27 PM 38.7869 -84.2892 187° South 433 498 29,000 -48 Level Indianapolis Center
Mon 03:44:29 PM 38.6678 -84.3042 186° South 428 493 28,900  Descending Indianapolis Center
Mon 03:45:30 PM 38.5522 -84.2103 148° Southeast 461 531 29,000 49 Climbing Indianapolis Center
Mon 03:46:32 PM 38.4506 -84.1092 142° Southeast 465 535 29,000  Level Indianapolis Center
Mon 03:47:34 PM 38.3506 -84.0061 141° Southeast 459 528 29,000  Level Indianapolis Center
Mon 03:48:36 PM 38.2506 -83.9056 142° Southeast 457 526 29,000  Level Indianapolis Center
Mon 03:49:38 PM 38.1503 -83.8042 141° Southeast 458 527 29,000  Level Indianapolis Center
Mon 03:50:39 PM 38.0503 -83.7050 142° Southeast 456 525 29,000  Level Indianapolis Center
Mon 03:51:41 PM 37.9339 -83.5872 141° Southeast 457 526 29,000  Level Indianapolis Center
Mon 03:52:43 PM 37.8364 -83.4886 141° Southeast 449 517 29,000  Level Indianapolis Center
Mon 03:53:45 PM 37.7342 -83.4003 146° Southeast 443 510 29,000  Level Indianapolis Center
Mon 03:54:47 PM 37.6278 -83.3369 155° Southeast 427 491 29,000  Level Indianapolis Center
Mon 03:55:48 PM 37.5206 -83.2775 156° South 421 484 29,000  Level Indianapolis Center
Mon 03:56:50 PM 37.4136 -83.2167 156° South 421 484 29,000  Level Indianapolis Center
Mon 03:57:52 PM 37.3061 -83.1569 156° South 420 483 29,000  Level Indianapolis Center
Mon 03:58:54 PM 37.1808 -83.0878 156° South 421 484 29,000  Level Indianapolis Center
Mon 03:59:56 PM 37.0719 -83.0272 156° South 426 490 29,000  Level Indianapolis Center
Mon 04:00:57 PM 36.9644 -82.9686 156° South 425 489 29,000  Level Indianapolis Center
Mon 04:01:59 PM 36.8583 -82.9094 156° South 435 501 29,000  Level Indianapolis Center
Mon 04:03:01 PM 36.7308 -82.8389 156° South 435 501 29,000  Level Indianapolis Center
Mon 04:04:08 PM 36.6150 -82.7767 157° South 436 502 29,000  Level Atlanta Center
Mon 04:05:08 PM 36.5058 -82.7164 156° South 436 502 29,000  Level Atlanta Center
Mon 04:06:08 PM 36.3947 -82.6564 157° South 436 502 29,000 -133 Level Atlanta Center
Mon 04:08:08 PM 36.1742 -82.5367 156° South 436 502 28,600 -467 Descending Atlanta Center
Mon 04:09:08 PM 36.0586 -82.4744 156° South 443 510 27,600 -1,000 Descending Atlanta Center
Mon 04:10:08 PM 35.9494 -82.4150 156° South 436 502 26,600 -1,000 Descending Atlanta Center
Mon 04:11:08 PM 35.8403 -82.3558 156° South 436 502 25,600 -800 Descending Atlanta Center
Mon 04:12:08 PM 35.7331 -82.2992 157° South 436 502 25,000 -300 Descending Atlanta Center
Mon 04:13:08 PM 35.6153 -82.2378 157° South 424 488 25,000  Level Atlanta Center
Mon 04:14:08 PM 35.5081 -82.1814 157° South 419 482 25,000  Level Atlanta Center
Mon 04:15:08 PM 35.3967 -82.1228 157° South 430 495 25,000  Level Atlanta Center
Mon 04:16:08 PM 35.2850 -82.0644 157° South 436 502 25,000  Level Atlanta Center
Mon 04:17:08 PM 35.1883 -82.0133 157° South 436 502 25,000 -500 Level Atlanta Center
Mon 04:18:08 PM 35.0808 -81.9575 157° South 431 496 24,000 -1,200 Descending Atlanta Center
Mon 04:19:08 PM 34.9839 -81.8942 152° Southeast 406 467 22,600 -1,800 Descending Atlanta Center
Mon 04:20:08 PM 34.8889 -81.8408 155° Southeast 393 452 20,400 -1,300 Descending Atlanta Center
Mon 04:21:08 PM 34.7928 -81.8308 175° South 356 410 20,000 -650 Descending Atlanta Center
Mon 04:22:08 PM 34.7036 -81.8633 197° South 336 387 19,100 -1,450 Descending Atlanta Center
Mon 04:23:08 PM 34.6189 -81.9108 205° Southwest 336 387 17,100 -2,050 Descending Atlanta Center
Mon 04:24:08 PM 34.5364 -81.9583 205° Southwest 336 387 15,000 -2,100 Descending Atlanta Center
Mon 04:25:08 PM 34.4597 -82.0006 204° Southwest 322 371 12,900 -1,950 Descending Atlanta Center
Mon 04:26:08 PM 34.3736 -81.9700 164° South 298 343 11,100 -626 Descending Atlanta Center
Mon 04:28:10 PM 34.1956 -81.8833 158° South 339 390 11,000 -33 Descending Jacksonville Center
Mon 04:29:10 PM 34.1097 -81.8567 166° South 333 383 11,000 -400 Level Jacksonville Center
Mon 04:30:10 PM 34.0281 -81.8325 166° South 316 364 10,200 -1,500 Descending Jacksonville Center
Mon 04:31:10 PM 33.9589 -81.7958 156° South 291 335 8,000 -2,050 Descending Jacksonville Center
Mon 04:32:10 PM 33.8939 -81.7417 145° Southeast 280 322 6,100 -1,450 Descending Jacksonville Center
Mon 04:33:10 PM 33.8308 -81.6950 148° Southeast 275 316 5,100 -500 Descending Jacksonville Center
Mon 04:34:10 PM 33.8278 -81.5975 92° East 245 282 5,100  Level Jacksonville Center
Mon 04:35:10 PM 33.8433 -81.4922 80° East 271 312 5,100  Level Jacksonville Center
Mon 04:36:10 PM 33.8464 -81.3922 88° East 290 334 5,100  Level Jacksonville Center
Mon 04:37:10 PM 33.8492 -81.2872 88° East 301 346 5,100  Level Jacksonville Center

Login

Don't have an account? Register now (free) for customized features, flight alerts, and more!